Fort Totten, New York
Current Conditions -  °F | °C
As of 6:51 AM on Tuesday 27 Jan 2015 (Local Time) from KLGA Reporting Station
Light Snow Light Snow  
Wind Chill:   Ceiling: 4500
Heat Index: 22°   Visibility: 3mi
Dew Point: 14°   Wind: 21mph
Humidity: 72%   Direction: 350°N
Pressure: 29.66"   Gusts: 33mph
Location:  40.7918°N, 73.7759°W
Report Text: KLGA 271151Z 35018G29KT 3SM -SN OVC045 M06/M10 A2966 RMK AO2 PK WND 36033/1141 SFC VIS 6 SLP044 931034 4/009 P0000 60013 70045 T10561100 11039 21067 53000 $
Loading
Personal Weather Stations






























Interactive Weather Map New forecast layout! Learn more

10-Day Weather Forecast

Advertisements
Track Severe Weather on mobile